Time;durP1;ratioP1;P1;durP2;ratioP2;P2;SDS_P1;SDS_P2;PMS_P1;PMS_P2;Temp;Humidity;BMP_temperature;BMP_pressure;BME280_temperature;BME280_humidity;BME280_pressure;Samples;Min_cycle;Max_cycle;Signal;HPM_P1;HPM_P2
2023/07/28 00:01:33;;;;;;;2.83;1.30;;;18.10;99.90;;;;;;4974279;28;20039;-74
2023/07/28 00:03:58;;;;;;;2.90;1.40;;;18.10;99.90;;;;;;4976876;28;20046;-74
2023/07/28 00:06:24;;;;;;;8.15;1.67;;;18.10;99.90;;;;;;4981577;28;20110;-74
2023/07/28 00:08:50;;;;;;;4.25;1.60;;;18.00;99.90;;;;;;4980403;28;20094;-73
2023/07/28 00:11:16;;;;;;;6.93;1.58;;;17.90;99.90;;;;;;4979325;28;20057;-74
2023/07/28 00:13:43;;;;;;;3.90;1.77;;;17.90;99.90;;;;;;4976717;28;20030;-74
2023/07/28 00:16:09;;;;;;;3.53;1.48;;;17.90;99.90;;;;;;4972521;28;20089;-74
2023/07/28 00:18:35;;;;;;;3.33;1.45;;;17.80;99.90;;;;;;4981273;28;20034;-74
2023/07/28 00:21:01;;;;;;;4.57;1.60;;;17.90;99.90;;;;;;4976547;28;20057;-73
2023/07/28 00:23:27;;;;;;;3.63;1.45;;;18.00;99.90;;;;;;4984892;28;20030;-73
2023/07/28 00:25:53;;;;;;;4.53;1.70;;;18.00;99.90;;;;;;4984236;28;20041;-73
2023/07/28 00:28:18;;;;;;;3.72;1.50;;;18.00;99.90;;;;;;4979510;28;20026;-74
2023/07/28 00:30:44;;;;;;;4.43;1.50;;;18.00;99.90;;;;;;4980785;28;20031;-73
2023/07/28 00:33:10;;;;;;;4.13;1.48;;;18.00;99.90;;;;;;4986556;28;20041;-73
2023/07/28 00:35:35;;;;;;;4.13;1.70;;;18.00;99.90;;;;;;4978817;28;20030;-74
2023/07/28 00:38:01;;;;;;;3.67;1.63;;;18.00;99.90;;;;;;4987571;28;20029;-74
2023/07/28 00:40:27;;;;;;;3.00;1.20;;;18.00;99.90;;;;;;4987010;28;20031;-73
2023/07/28 00:42:52;;;;;;;3.42;1.75;;;18.00;99.90;;;;;;4980123;28;20058;-73
2023/07/28 00:45:18;;;;;;;3.83;1.77;;;18.00;99.90;;;;;;4987893;28;20022;-73
2023/07/28 00:47:45;;;;;;;5.15;2.38;;;17.90;99.90;;;;;;4985895;28;20030;-74
2023/07/28 00:50:12;;;;;;;3.92;1.95;;;17.90;99.90;;;;;;4975425;28;20026;-73
2023/07/28 00:52:38;;;;;;;4.30;1.73;;;17.90;99.90;;;;;;4985302;28;20039;-74
2023/07/28 00:55:05;;;;;;;3.03;1.42;;;17.90;99.90;;;;;;4986641;28;20045;-74
2023/07/28 00:57:31;;;;;;;4.07;1.35;;;17.90;99.90;;;;;;4983867;28;20082;-74
2023/07/28 00:59:56;;;;;;;4.03;1.40;;;17.90;99.90;;;;;;4982883;28;20034;-74
2023/07/28 01:02:22;;;;;;;6.90;1.70;;;17.90;99.90;;;;;;4979679;28;20559;-74
2023/07/28 01:04:49;;;;;;;2.80;1.38;;;17.80;99.90;;;;;;4968793;28;20042;-73
2023/07/28 01:07:26;;;;;;;3.42;1.55;;;17.70;99.90;;;;;;4973093;28;20031;-74
2023/07/28 01:10:20;;;;;;;4.63;1.83;;;17.60;99.90;;;;;;4976893;28;20098;-73
2023/07/28 01:12:46;;;;;;;3.15;1.50;;;17.80;99.90;;;;;;4975924;28;20042;-74
2023/07/28 01:15:11;;;;;;;2.78;1.35;;;17.90;99.90;;;;;;4973041;28;20030;-73
2023/07/28 01:17:37;;;;;;;4.07;1.60;;;17.80;99.90;;;;;;4976955;28;20023;-74
2023/07/28 01:20:03;;;;;;;4.95;1.80;;;17.90;99.90;;;;;;4979408;28;20362;-73
2023/07/28 01:23:12;;;;;;;3.15;1.40;;;17.90;99.90;;;;;;4978712;28;20026;-74
2023/07/28 01:26:07;;;;;;;3.47;1.42;;;17.80;99.90;;;;;;4971425;28;20042;-74
2023/07/28 01:28:34;;;;;;;5.63;2.17;;;17.70;99.90;;;;;;4965308;28;20042;-74
2023/07/28 01:31:02;;;;;;;10.45;2.15;;;17.80;99.90;;;;;;4982372;28;20563;-74
2023/07/28 01:33:29;;;;;;;5.03;1.75;;;17.80;99.90;;;;;;4983926;28;20380;-73
2023/07/28 01:35:55;;;;;;;3.80;1.40;;;17.70;99.90;;;;;;4981698;28;20033;-73
2023/07/28 01:38:21;;;;;;;4.68;1.83;;;17.70;99.90;;;;;;4980484;28;20117;-73
2023/07/28 01:40:46;;;;;;;5.68;2.17;;;17.70;99.90;;;;;;4981392;28;20117;-73
2023/07/28 01:43:12;;;;;;;3.42;1.75;;;17.80;99.90;;;;;;4982041;28;20045;-73
2023/07/28 01:45:38;;;;;;;4.20;1.50;;;17.80;99.90;;;;;;4979448;28;20836;-73
2023/07/28 01:48:05;;;;;;;4.75;1.85;;;17.70;99.90;;;;;;4984249;28;20392;-73
2023/07/28 01:50:30;;;;;;;3.97;1.80;;;17.70;99.90;;;;;;4978898;28;20125;-73
2023/07/28 01:52:56;;;;;;;5.72;1.65;;;17.70;99.90;;;;;;4979133;28;20106;-73
2023/07/28 01:55:22;;;;;;;5.32;1.73;;;17.60;99.90;;;;;;4988058;28;20181;-74
2023/07/28 01:57:54;;;;;;;5.30;2.00;;;17.60;99.90;;;;;;4978570;28;20034;-73
2023/07/28 02:00:19;;;;;;;3.92;1.70;;;17.60;99.90;;;;;;4982247;28;20130;-73
2023/07/28 02:02:47;;;;;;;4.53;1.42;;;17.60;99.90;;;;;;4975941;28;20113;-74
2023/07/28 02:05:12;;;;;;;6.63;1.75;;;17.50;99.90;;;;;;4979989;28;20027;-74
2023/07/28 02:07:38;;;;;;;2.92;1.50;;;17.50;99.90;;;;;;4975288;28;20477;-74
2023/07/28 02:10:04;;;;;;;3.78;1.60;;;17.50;99.90;;;;;;4977876;28;20115;-73
2023/07/28 02:12:30;;;;;;;4.82;1.58;;;17.50;99.90;;;;;;4984132;28;20046;-74
2023/07/28 02:14:55;;;;;;;3.10;1.42;;;17.60;99.90;;;;;;4986691;28;20185;-75
2023/07/28 02:17:21;;;;;;;4.07;1.95;;;17.50;99.90;;;;;;4978530;28;20551;-74
2023/07/28 02:19:47;;;;;;;3.40;1.70;;;17.40;99.90;;;;;;4979989;28;20081;-73
2023/07/28 02:22:13;;;;;;;4.20;1.70;;;17.50;99.90;;;;;;4976047;28;20027;-75
2023/07/28 02:24:38;;;;;;;4.80;1.65;;;17.60;99.90;;;;;;4977964;28;20096;-74
2023/07/28 02:27:04;;;;;;;8.25;2.70;;;17.60;99.90;;;;;;4979995;28;20038;-74
2023/07/28 02:29:30;;;;;;;3.13;1.50;;;17.50;99.90;;;;;;4975800;28;20026;-75
2023/07/28 02:31:55;;;;;;;3.72;1.52;;;17.40;99.90;;;;;;4979880;28;20453;-74
2023/07/28 02:34:21;;;;;;;4.82;1.75;;;17.40;99.90;;;;;;4978298;28;20125;-74
2023/07/28 02:36:47;;;;;;;3.70;1.70;;;17.40;99.90;;;;;;4977461;28;20428;-75
2023/07/28 02:39:13;;;;;;;4.45;1.73;;;17.20;99.90;;;;;;4986969;28;20113;-74
2023/07/28 02:41:38;;;;;;;3.50;1.83;;;17.30;99.90;;;;;;4972928;28;20034;-74
2023/07/28 02:44:04;;;;;;;4.10;1.85;;;17.20;99.90;;;;;;4976541;28;20026;-75
2023/07/28 02:46:30;;;;;;;4.22;1.67;;;17.10;99.90;;;;;;4977818;28;20543;-74
2023/07/28 02:48:56;;;;;;;4.65;1.90;;;17.10;99.90;;;;;;4976991;28;20034;-73
2023/07/28 02:51:21;;;;;;;3.63;1.52;;;17.10;99.90;;;;;;4986294;28;20172;-74
2023/07/28 02:53:47;;;;;;;3.65;1.60;;;17.10;99.90;;;;;;4966888;28;20061;-74
2023/07/28 02:56:14;;;;;;;3.60;1.70;;;17.10;99.90;;;;;;4970688;28;20050;-74
2023/07/28 02:58:39;;;;;;;4.22;1.73;;;17.10;99.90;;;;;;4976665;28;20037;-74
2023/07/28 03:01:05;;;;;;;4.65;1.83;;;17.10;99.90;;;;;;4980859;28;20034;-73
2023/07/28 03:03:31;;;;;;;4.07;1.65;;;17.00;99.90;;;;;;4969646;28;20444;-75
2023/07/28 03:05:56;;;;;;;3.95;1.63;;;16.90;99.90;;;;;;4973258;28;20034;-75
2023/07/28 03:08:22;;;;;;;3.75;1.67;;;17.00;99.90;;;;;;4974323;28;20033;-73
2023/07/28 03:10:48;;;;;;;3.20;1.55;;;17.00;99.90;;;;;;4975074;28;20101;-75
2023/07/28 03:13:14;;;;;;;3.90;1.98;;;16.80;99.90;;;;;;4975996;28;20038;-75
2023/07/28 03:15:39;;;;;;;3.53;1.92;;;16.70;99.90;;;;;;4966529;28;21612;-74
2023/07/28 03:18:05;;;;;;;6.05;1.83;;;16.60;99.90;;;;;;4975544;28;20026;-74
2023/07/28 03:20:31;;;;;;;3.40;1.77;;;16.60;99.90;;;;;;4962461;28;20038;-75
2023/07/28 03:22:56;;;;;;;3.05;1.42;;;16.60;99.90;;;;;;4974031;28;20098;-74
2023/07/28 03:25:22;;;;;;;3.65;1.63;;;16.60;99.90;;;;;;4975599;28;20038;-75
2023/07/28 03:27:47;;;;;;;6.10;1.50;;;16.50;99.90;;;;;;4977076;28;20026;-74
2023/07/28 03:30:13;;;;;;;4.03;1.50;;;16.60;99.90;;;;;;4979366;28;20635;-74
2023/07/28 03:32:39;;;;;;;6.72;2.30;;;16.70;99.90;;;;;;4968411;28;20624;-74
2023/07/28 03:35:06;;;;;;;4.30;1.70;;;16.50;99.90;;;;;;4968039;28;20037;-76
2023/07/28 03:37:32;;;;;;;4.45;1.83;;;16.70;99.90;;;;;;4967186;28;20616;-74
2023/07/28 03:39:58;;;;;;;6.97;2.33;;;16.70;99.90;;;;;;4971473;28;20030;-74
2023/07/28 03:42:24;;;;;;;3.22;1.65;;;16.80;99.90;;;;;;4968370;28;20037;-74
2023/07/28 03:44:50;;;;;;;4.07;1.98;;;16.80;99.90;;;;;;4966514;28;20030;-74
2023/07/28 03:47:15;;;;;;;5.80;2.33;;;16.80;99.90;;;;;;4978539;28;20041;-75
2023/07/28 03:49:41;;;;;;;6.15;2.10;;;16.70;99.90;;;;;;4974307;28;20373;-73
2023/07/28 03:52:07;;;;;;;4.22;1.50;;;16.60;99.90;;;;;;4973871;28;20046;-74
2023/07/28 03:54:32;;;;;;;4.97;1.98;;;16.60;99.90;;;;;;4971189;28;20358;-74
2023/07/28 03:56:58;;;;;;;6.47;2.15;;;16.60;99.90;;;;;;4981415;28;20058;-74
2023/07/28 03:59:24;;;;;;;4.03;1.95;;;16.70;99.90;;;;;;4968671;28;20034;-74
2023/07/28 04:01:49;;;;;;;4.82;2.17;;;16.80;99.90;;;;;;4966686;28;20049;-74
2023/07/28 04:04:15;;;;;;;6.05;1.95;;;16.90;99.90;;;;;;4967951;28;20034;-74
2023/07/28 04:06:53;;;;;;;3.78;1.90;;;17.00;99.90;;;;;;4964261;28;20039;-74
2023/07/28 04:09:19;;;;;;;3.35;1.70;;;17.00;99.90;;;;;;4971026;28;20035;-75
2023/07/28 04:11:45;;;;;;;3.45;2.03;;;17.00;99.90;;;;;;4967776;28;20043;-74
2023/07/28 04:14:11;;;;;;;5.68;1.77;;;17.10;99.90;;;;;;4966557;28;20491;-74
2023/07/28 04:16:37;;;;;;;5.13;1.77;;;17.00;99.90;;;;;;4968476;28;20038;-74
2023/07/28 04:19:02;;;;;;;3.78;1.73;;;16.90;99.90;;;;;;4972604;28;20169;-75
2023/07/28 04:21:28;;;;;;;3.55;1.60;;;17.00;99.90;;;;;;4979450;28;20444;-75
2023/07/28 04:23:54;;;;;;;4.45;1.90;;;16.90;99.90;;;;;;4974635;28;20041;-74
2023/07/28 04:26:19;;;;;;;3.13;1.60;;;16.90;99.90;;;;;;4973011;28;20058;-75
2023/07/28 04:28:45;;;;;;;4.10;1.98;;;16.80;99.90;;;;;;4969799;28;20071;-74
2023/07/28 04:31:12;;;;;;;4.40;1.98;;;16.80;99.90;;;;;;4971139;28;20092;-74
2023/07/28 04:33:41;;;;;;;5.25;1.85;;;16.90;99.90;;;;;;4974100;28;20033;-74
2023/07/28 04:36:06;;;;;;;5.78;1.80;;;16.90;99.90;;;;;;4973339;28;20062;-74
2023/07/28 04:38:32;;;;;;;4.32;1.65;;;17.00;99.90;;;;;;4966206;28;20179;-74
2023/07/28 04:40:57;;;;;;;6.03;2.70;;;16.90;99.90;;;;;;4974945;28;20022;-74
2023/07/28 04:43:23;;;;;;;4.38;2.00;;;16.80;99.90;;;;;;4976150;28;20117;-75
2023/07/28 04:45:49;;;;;;;4.40;1.70;;;16.90;99.90;;;;;;4981073;28;20022;-75
2023/07/28 04:48:14;;;;;;;7.40;2.00;;;16.90;99.90;;;;;;4972481;28;20057;-74
2023/07/28 04:50:40;;;;;;;3.03;1.55;;;17.00;99.90;;;;;;4976146;28;20138;-74
2023/07/28 04:53:06;;;;;;;3.28;1.45;;;17.00;99.90;;;;;;4977627;28;20049;-74
2023/07/28 04:55:31;;;;;;;8.10;2.15;;;17.10;99.90;;;;;;4975141;28;20042;-74
2023/07/28 04:57:57;;;;;;;3.20;1.45;;;17.20;99.90;;;;;;4977042;28;20034;-74
2023/07/28 05:00:23;;;;;;;5.40;1.70;;;17.20;99.90;;;;;;4972533;28;20062;-75
2023/07/28 05:02:49;;;;;;;4.10;2.17;;;17.20;99.90;;;;;;4980764;28;20504;-74
2023/07/28 05:05:15;;;;;;;4.82;1.70;;;17.40;99.90;;;;;;4972813;28;20114;-74
2023/07/28 05:07:41;;;;;;;3.42;1.52;;;17.50;99.90;;;;;;4974166;28;20484;-75
2023/07/28 05:10:08;;;;;;;5.55;1.70;;;17.60;99.90;;;;;;4978417;28;20034;-75
2023/07/28 05:12:34;;;;;;;5.53;1.90;;;17.60;99.90;;;;;;4977798;28;20055;-76
2023/07/28 05:15:00;;;;;;;3.67;1.50;;;17.60;99.90;;;;;;4974372;28;20101;-74
2023/07/28 05:17:25;;;;;;;4.20;2.03;;;17.70;99.90;;;;;;4975693;28;20469;-75
2023/07/28 05:19:51;;;;;;;8.40;2.00;;;17.60;99.90;;;;;;4981951;28;20027;-75
2023/07/28 05:22:17;;;;;;;4.20;1.80;;;17.40;99.90;;;;;;4969988;28;20035;-74
2023/07/28 05:24:44;;;;;;;4.22;1.52;;;17.40;99.90;;;;;;4977060;28;20054;-75
2023/07/28 05:27:10;;;;;;;3.25;1.63;;;17.40;99.90;;;;;;4976371;28;20501;-75
2023/07/28 05:29:36;;;;;;;4.85;1.88;;;17.30;99.90;;;;;;4975356;28;20038;-75
2023/07/28 05:32:02;;;;;;;5.70;2.47;;;17.40;99.90;;;;;;4974122;28;20400;-80
2023/07/28 05:34:27;;;;;;;4.63;1.75;;;17.60;99.90;;;;;;4975851;28;20042;-73
2023/07/28 05:36:53;;;;;;;3.95;1.63;;;17.40;99.90;;;;;;4978293;28;20030;-75
2023/07/28 05:39:19;;;;;;;3.85;1.85;;;17.50;99.90;;;;;;4981824;28;20054;-75
2023/07/28 05:41:45;;;;;;;5.50;1.73;;;17.40;99.90;;;;;;4982109;28;20038;-75
2023/07/28 05:44:11;;;;;;;7.10;1.83;;;17.30;99.90;;;;;;4975007;28;20396;-75
2023/07/28 05:46:37;;;;;;;4.88;1.90;;;17.20;99.90;;;;;;4974115;28;20039;-75
2023/07/28 05:49:02;;;;;;;4.15;2.10;;;17.30;99.90;;;;;;4977293;28;20388;-75
2023/07/28 05:51:28;;;;;;;4.82;1.77;;;17.40;99.90;;;;;;4978268;28;20419;-75
2023/07/28 05:53:54;;;;;;;4.60;2.13;;;17.40;99.90;;;;;;4970668;28;20062;-75
2023/07/28 05:56:20;;;;;;;5.38;2.05;;;17.40;99.90;;;;;;4973933;28;20034;-75
2023/07/28 05:58:47;;;;;;;5.50;2.00;;;17.60;99.90;;;;;;4974259;28;20042;-75
2023/07/28 06:01:12;;;;;;;3.88;2.00;;;17.70;99.90;;;;;;4966810;28;20023;-77
2023/07/28 06:03:38;;;;;;;4.18;1.85;;;17.60;99.90;;;;;;4967938;28;20045;-76
2023/07/28 06:06:04;;;;;;;4.40;1.95;;;17.60;99.90;;;;;;4982496;28;20897;-76
2023/07/28 06:08:29;;;;;;;3.92;1.95;;;17.70;99.90;;;;;;4982502;28;20076;-75
2023/07/28 06:10:55;;;;;;;5.63;2.22;;;17.70;99.90;;;;;;4976375;28;20074;-76
2023/07/28 06:13:21;;;;;;;4.70;1.73;;;17.70;99.90;;;;;;4977127;28;20629;-76
2023/07/28 06:15:47;;;;;;;5.20;2.00;;;17.70;99.90;;;;;;4975904;28;20030;-76
2023/07/28 06:18:13;;;;;;;3.63;2.03;;;17.70;99.90;;;;;;4979749;28;20038;-75
2023/07/28 06:20:42;;;;;;;5.32;1.83;;;17.80;99.90;;;;;;4969727;28;20178;-76
2023/07/28 06:23:08;;;;;;;3.92;1.95;;;17.90;99.90;;;;;;4970015;28;20087;-74
2023/07/28 06:25:34;;;;;;;6.70;2.47;;;17.90;99.90;;;;;;4963586;28;20709;-75
2023/07/28 06:28:00;;;;;;;5.47;2.05;;;18.00;99.90;;;;;;4974427;28;20072;-74
2023/07/28 06:30:25;;;;;;;4.40;1.85;;;18.10;99.90;;;;;;4972527;28;20015;-74
2023/07/28 06:32:51;;;;;;;4.82;2.08;;;18.30;99.90;;;;;;4970008;28;20054;-75
2023/07/28 06:35:17;;;;;;;5.40;1.80;;;18.30;99.90;;;;;;4967237;28;20042;-75
2023/07/28 06:37:43;;;;;;;5.15;2.03;;;18.40;99.90;;;;;;4978981;28;20077;-76
2023/07/28 06:40:10;;;;;;;3.92;1.80;;;18.40;99.90;;;;;;4976277;28;20046;-74
2023/07/28 06:42:36;;;;;;;2.90;1.52;;;18.40;99.90;;;;;;4974341;28;20030;-74
2023/07/28 06:45:03;;;;;;;9.43;2.33;;;18.60;99.90;;;;;;4976787;28;20033;-75
2023/07/28 06:47:29;;;;;;;5.25;2.17;;;18.60;99.90;;;;;;4969962;28;20105;-75
2023/07/28 06:49:54;;;;;;;4.05;1.80;;;18.80;99.90;;;;;;4975528;28;20181;-75
2023/07/28 06:52:20;;;;;;;4.38;2.38;;;18.90;99.90;;;;;;4970332;28;20046;-75
2023/07/28 06:54:48;;;;;;;8.88;2.20;;;19.00;99.90;;;;;;4975484;28;20035;-75
2023/07/28 06:57:15;;;;;;;7.05;2.10;;;19.10;99.90;;;;;;4970619;28;20031;-75
2023/07/28 06:59:41;;;;;;;8.75;2.42;;;19.20;99.90;;;;;;4976493;28;20031;-75
2023/07/28 07:02:06;;;;;;;7.22;2.45;;;19.40;99.90;;;;;;4977624;28;20030;-76
2023/07/28 07:04:32;;;;;;;5.10;2.42;;;19.60;99.90;;;;;;4971965;28;20041;-75
2023/07/28 07:06:58;;;;;;;4.13;2.10;;;19.60;99.90;;;;;;4974385;28;20026;-75
2023/07/28 07:09:24;;;;;;;3.70;1.90;;;19.90;99.90;;;;;;4973842;28;20034;-75
2023/07/28 07:11:50;;;;;;;8.82;2.47;;;20.20;99.90;;;;;;4965178;28;20420;-75
2023/07/28 07:14:16;;;;;;;3.60;1.65;;;20.60;99.90;;;;;;4974147;28;20070;-75
2023/07/28 07:16:42;;;;;;;3.78;1.83;;;20.80;99.90;;;;;;4969422;28;20074;-77
2023/07/28 07:19:08;;;;;;;5.13;2.40;;;20.90;99.90;;;;;;4962464;28;20031;-75
2023/07/28 07:21:34;;;;;;;3.50;1.80;;;21.10;99.90;;;;;;4979887;28;20030;-75
2023/07/28 07:24:00;;;;;;;8.93;2.35;;;21.30;99.90;;;;;;4970916;28;20034;-75
2023/07/28 07:26:26;;;;;;;5.22;2.00;;;21.60;99.90;;;;;;4970521;28;20030;-74
2023/07/28 07:28:52;;;;;;;4.40;2.10;;;22.10;99.90;;;;;;4974121;28;20029;-74
2023/07/28 07:31:19;;;;;;;5.68;1.80;;;23.10;99.90;;;;;;4977291;28;20050;-76
2023/07/28 07:33:45;;;;;;;5.30;2.00;;;24.20;99.30;;;;;;4962027;28;20058;-79
2023/07/28 07:36:15;;;;;;;3.05;1.60;;;24.90;97.80;;;;;;4968752;28;20130;-74
2023/07/28 07:38:41;;;;;;;6.45;1.77;;;25.90;96.50;;;;;;4972901;28;20624;-77
2023/07/28 07:41:10;;;;;;;6.45;1.73;;;26.50;95.50;;;;;;4977640;28;20074;-73
2023/07/28 07:43:36;;;;;;;6.70;2.00;;;27.20;94.70;;;;;;4966875;28;20105;-75
2023/07/28 07:46:02;;;;;;;3.85;1.85;;;27.20;94.10;;;;;;4964980;28;20528;-75
2023/07/28 07:48:27;;;;;;;3.40;1.70;;;27.90;94.00;;;;;;4972184;28;20036;-76
2023/07/28 07:50:53;;;;;;;3.03;1.60;;;28.00;94.40;;;;;;4973682;28;20385;-75
2023/07/28 07:53:19;;;;;;;7.90;1.95;;;28.00;93.80;;;;;;4969900;28;20039;-78
2023/07/28 07:55:44;;;;;;;5.13;2.25;;;28.10;94.10;;;;;;4973078;28;20148;-75
2023/07/28 07:58:10;;;;;;;5.43;2.08;;;28.00;94.10;;;;;;4971144;28;21035;-75
2023/07/28 08:00:39;;;;;;;4.78;1.70;;;27.90;94.00;;;;;;4966081;28;20026;-76
2023/07/28 08:03:05;;;;;;;3.20;1.60;;;28.00;93.80;;;;;;4971757;28;20584;-74
2023/07/28 08:05:30;;;;;;;3.78;1.70;;;27.30;95.00;;;;;;4974734;28;20119;-75
2023/07/28 08:07:56;;;;;;;5.45;1.88;;;25.80;95.20;;;;;;4969953;28;20035;-75
2023/07/28 08:10:22;;;;;;;3.08;1.73;;;23.80;97.80;;;;;;4968944;28;20026;-76
2023/07/28 08:12:48;;;;;;;4.85;2.22;;;23.90;97.60;;;;;;4973628;28;20638;-74
2023/07/28 08:15:14;;;;;;;6.93;1.92;;;25.00;96.20;;;;;;4977798;28;20027;-75
2023/07/28 08:17:40;;;;;;;4.43;1.98;;;25.80;95.70;;;;;;4976468;28;20341;-75
2023/07/28 08:20:07;;;;;;;4.22;2.00;;;26.40;95.50;;;;;;4978972;28;20029;-75
2023/07/28 08:22:33;;;;;;;3.55;1.98;;;26.70;95.60;;;;;;4977243;28;20034;-75
2023/07/28 08:24:59;;;;;;;2.55;1.30;;;26.70;95.20;;;;;;4982558;28;20034;-75
2023/07/28 08:27:24;;;;;;;4.43;1.58;;;26.10;95.00;;;;;;4978330;28;20066;-76
2023/07/28 08:29:50;;;;;;;4.65;1.80;;;25.20;95.90;;;;;;4973953;28;20030;-74
2023/07/28 08:32:16;;;;;;;5.20;1.92;;;24.60;97.00;;;;;;4969048;28;20077;-74
2023/07/28 08:34:42;;;;;;;4.25;1.90;;;24.40;98.00;;;;;;4980388;28;20482;-75
2023/07/28 08:37:08;;;;;;;9.02;1.95;;;24.30;97.80;;;;;;4981826;28;20030;-78
2023/07/28 08:39:34;;;;;;;3.95;1.90;;;24.10;97.40;;;;;;4971139;28;20799;-75
2023/07/28 08:42:03;;;;;;;5.03;1.70;;;24.20;97.40;;;;;;4977695;28;20029;-74
2023/07/28 08:44:33;;;;;;;5.22;2.45;;;24.00;97.20;;;;;;4976977;28;20125;-75
2023/07/28 08:47:01;;;;;;;4.20;2.13;;;24.30;97.70;;;;;;4981640;28;20041;-75
2023/07/28 08:49:27;;;;;;;5.40;1.63;;;24.30;97.20;;;;;;4987872;28;20571;-75
2023/07/28 08:51:58;;;;;;;4.00;1.73;;;24.40;97.50;;;;;;4987440;28;20031;-74
2023/07/28 08:54:24;;;;;;;5.57;2.25;;;24.10;97.60;;;;;;4986300;28;20049;-78
2023/07/28 08:56:50;;;;;;;6.03;2.38;;;24.10;97.10;;;;;;4987029;28;20030;-75
2023/07/28 08:59:26;;;;;;;5.00;1.95;;;24.30;97.20;;;;;;4987432;28;20041;-75
2023/07/28 09:02:00;;;;;;;5.57;1.70;;;24.40;96.70;;;;;;4987127;28;20441;-74
2023/07/28 09:04:26;;;;;;;;;;;24.50;96.50;;;;;;4986887;28;20049;-75
2023/07/28 09:06:52;;;;;;;5.65;1.92;;;24.50;96.60;;;;;;4979356;28;19909;-75
2023/07/28 09:09:22;;;;;;;5.43;1.83;;;24.60;97.50;;;;;;4985930;28;20041;-74
2023/07/28 09:11:49;;;;;;;3.60;1.73;;;24.70;97.20;;;;;;4981819;28;20081;-76
2023/07/28 09:14:16;;;;;;;4.03;1.92;;;24.90;96.50;;;;;;4987806;28;21222;-75
2023/07/28 09:16:43;;;;;;;6.13;1.98;;;24.90;96.30;;;;;;4988211;28;20176;-75
2023/07/28 09:19:09;;;;;;;8.07;2.05;;;25.20;96.90;;;;;;4986975;28;20531;-75
2023/07/28 09:21:35;;;;;;;4.85;1.88;;;25.30;96.30;;;;;;4988295;28;20213;-78
2023/07/28 09:24:04;;;;;;;3.45;1.77;;;25.40;96.60;;;;;;4986614;28;20497;-75
2023/07/28 09:26:46;;;;;;;4.75;2.17;;;25.60;95.90;;;;;;4987046;28;20034;-75
2023/07/28 09:29:17;;;;;;;5.03;1.70;;;25.30;96.90;;;;;;4988365;28;20105;-74
2023/07/28 09:31:44;;;;;;;4.18;1.90;;;25.20;96.70;;;;;;4987052;28;20657;-75
2023/07/28 09:34:10;;;;;;;4.22;1.83;;;25.20;96.70;;;;;;4974085;28;20129;-74
2023/07/28 09:36:38;;;;;;;8.82;2.40;;;25.30;97.40;;;;;;4982742;28;20038;-75
2023/07/28 09:39:07;;;;;;;6.47;1.80;;;25.40;96.40;;;;;;4986738;28;20085;-75
2023/07/28 09:41:36;;;;;;;6.07;2.50;;;25.60;97.80;;;;;;4986330;28;20030;-76
2023/07/28 09:44:01;;;;;;;5.18;2.05;;;25.60;96.50;;;;;;4987092;28;20077;-74
2023/07/28 09:46:30;;;;;;;5.43;2.30;;;25.80;97.10;;;;;;4986460;28;20034;-76
2023/07/28 09:48:58;;;;;;;5.13;2.63;;;25.70;96.70;;;;;;4972892;28;20022;-75
2023/07/28 09:51:30;;;;;;;3.47;1.80;;;25.70;95.90;;;;;;4973442;28;20141;-75
2023/07/28 09:54:03;;;;;;;4.07;2.28;;;25.70;96.00;;;;;;4976559;28;20027;-76
2023/07/28 09:56:29;;;;;;;5.97;2.10;;;25.70;96.10;;;;;;4975319;28;20066;-76
2023/07/28 09:58:57;;;;;;;7.15;2.40;;;25.70;96.00;;;;;;4981344;28;20030;-75
2023/07/28 10:01:23;;;;;;;5.25;2.05;;;25.70;96.30;;;;;;4979683;28;20037;-75
2023/07/28 10:03:50;;;;;;;6.13;1.83;;;25.90;96.70;;;;;;4981671;28;20027;-75
2023/07/28 10:06:19;;;;;;;4.28;2.30;;;26.30;96.10;;;;;;4983117;28;20038;-75
2023/07/28 10:08:46;;;;;;;8.32;2.20;;;26.40;96.30;;;;;;4977113;28;20120;-75
2023/07/28 10:11:18;;;;;;;7.28;2.00;;;26.60;95.80;;;;;;4979362;28;20173;-75
2023/07/28 10:13:46;;;;;;;3.70;1.73;;;26.80;95.80;;;;;;4973726;28;20536;-75
2023/07/28 10:16:16;;;;;;;6.10;2.38;;;26.90;97.00;;;;;;4979188;28;20022;-74
2023/07/28 10:18:51;;;;;;;4.65;1.65;;;26.70;95.90;;;;;;4980197;28;20030;-74
2023/07/28 10:21:17;;;;;;;4.20;2.65;;;26.70;95.90;;;;;;4984242;28;20037;-75
2023/07/28 10:23:44;;;;;;;3.67;1.80;;;26.70;95.70;;;;;;4975342;28;20572;-74
2023/07/28 10:26:10;;;;;;;4.47;2.00;;;27.00;95.70;;;;;;4978107;28;20095;-74
2023/07/28 10:28:41;;;;;;;6.75;2.38;;;26.60;95.40;;;;;;4975164;28;20029;-76
2023/07/28 10:31:10;;;;;;;7.93;2.97;;;26.90;96.10;;;;;;4972711;28;20035;-75
2023/07/28 10:33:36;;;;;;;6.13;2.25;;;27.00;96.20;;;;;;4973048;28;20570;-73
2023/07/28 10:36:21;;;;;;;6.97;2.10;;;26.80;95.40;;;;;;4968439;28;20031;-73
2023/07/28 10:38:59;;;;;;;3.70;1.95;;;26.60;95.30;;;;;;4972364;28;20522;-76
2023/07/28 10:41:25;;;;;;;7.00;2.30;;;26.90;95.70;;;;;;4981273;28;20456;-75
2023/07/28 10:43:51;;;;;;;4.88;2.00;;;27.20;96.10;;;;;;4971602;28;20027;-76
2023/07/28 10:46:20;;;;;;;6.45;2.33;;;27.20;95.40;;;;;;4979170;28;20469;-76
2023/07/28 10:48:48;;;;;;;3.97;2.28;;;27.30;95.90;;;;;;4972425;28;20062;-72
2023/07/28 10:51:23;;;;;;;3.90;2.00;;;27.40;96.50;;;;;;4974830;28;20093;-75
2023/07/28 10:53:55;;;;;;;5.80;2.58;;;27.50;96.60;;;;;;4981028;28;20135;-76
2023/07/28 10:56:21;;;;;;;6.05;2.17;;;27.80;96.70;;;;;;4976184;28;20030;-74
2023/07/28 10:58:47;;;;;;;5.78;2.35;;;27.40;95.10;;;;;;4983141;28;20030;-72
2023/07/28 11:01:15;;;;;;;6.07;2.08;;;27.20;96.50;;;;;;4972766;28;20054;-72
2023/07/28 11:03:41;;;;;;;7.57;2.30;;;26.80;97.00;;;;;;4971724;28;20034;-74
2023/07/28 11:06:06;;;;;;;5.85;1.85;;;26.40;96.50;;;;;;4970671;28;20033;-73
2023/07/28 11:08:33;;;;;;;3.83;2.28;;;26.80;95.50;;;;;;4974041;28;20035;-74
2023/07/28 11:10:58;;;;;;;5.75;2.20;;;27.00;94.50;;;;;;4970351;28;20074;-73
2023/07/28 11:13:25;;;;;;;3.70;2.00;;;27.00;95.40;;;;;;4968347;28;20117;-75
2023/07/28 11:15:51;;;;;;;5.78;2.45;;;26.90;95.70;;;;;;4971699;28;20122;-73
2023/07/28 11:18:16;;;;;;;4.80;2.28;;;26.80;95.60;;;;;;4980745;28;20389;-74
2023/07/28 11:20:43;;;;;;;4.75;2.00;;;26.90;96.10;;;;;;4964324;28;20042;-74
2023/07/28 11:23:08;;;;;;;5.55;2.00;;;26.90;95.90;;;;;;4957358;28;20469;-74
2023/07/28 11:25:35;;;;;;;4.47;2.22;;;26.90;95.70;;;;;;4972444;28;20039;-75
2023/07/28 11:28:05;;;;;;;6.80;2.42;;;26.80;95.30;;;;;;4978390;28;20026;-74
2023/07/28 11:30:32;;;;;;;4.38;2.10;;;26.90;96.50;;;;;;4974725;28;20038;-73
2023/07/28 11:32:58;;;;;;;5.88;2.25;;;26.90;96.10;;;;;;4980611;28;20041;-73
2023/07/28 11:35:23;;;;;;;5.20;2.17;;;27.10;95.20;;;;;;4981651;28;20023;-73
2023/07/28 11:37:52;;;;;;;4.68;2.20;;;27.10;96.50;;;;;;4975949;28;20030;-74
2023/07/28 11:40:20;;;;;;;4.93;2.42;;;27.40;95.70;;;;;;4973151;28;20030;-73
2023/07/28 11:42:55;;;;;;;4.55;2.60;;;27.20;95.70;;;;;;4980168;28;20041;-72
2023/07/28 11:45:24;;;;;;;4.20;1.80;;;27.00;95.50;;;;;;4971400;28;20125;-74
2023/07/28 11:48:00;;;;;;;7.00;2.20;;;27.60;95.90;;;;;;4973593;28;20037;-74
2023/07/28 11:50:34;;;;;;;4.07;2.28;;;27.30;95.20;;;;;;4978535;28;20049;-73
2023/07/28 11:52:59;;;;;;;6.03;2.13;;;27.50;95.30;;;;;;4983134;28;20042;-74
2023/07/28 11:55:25;;;;;;;7.28;2.30;;;27.30;94.60;;;;;;4970557;28;20106;-73
2023/07/28 11:57:54;;;;;;;5.90;2.17;;;27.50;95.80;;;;;;4980280;28;20030;-73
2023/07/28 12:00:29;;;;;;;4.22;2.40;;;27.50;95.10;;;;;;4973224;28;20844;-72
2023/07/28 12:03:03;;;;;;;10.20;2.10;;;27.40;94.80;;;;;;4978735;28;20034;-73
2023/07/28 12:05:30;;;;;;;5.53;2.33;;;27.30;95.30;;;;;;4978101;28;20023;-74
2023/07/28 12:07:55;;;;;;;5.07;2.30;;;27.20;96.50;;;;;;4973812;28;20089;-73
2023/07/28 12:10:21;;;;;;;4.50;2.33;;;27.50;96.10;;;;;;4977867;28;20035;-74
2023/07/28 12:12:48;;;;;;;5.03;2.35;;;27.30;95.20;;;;;;4977134;28;20503;-73
2023/07/28 12:15:33;;;;;;;7.30;2.40;;;27.60;95.80;;;;;;4977859;28;20167;-73
2023/07/28 12:18:03;;;;;;;5.40;2.03;;;27.10;95.20;;;;;;4980157;28;20132;-73
2023/07/28 12:20:37;;;;;;;8.00;2.28;;;26.90;95.90;;;;;;4978262;28;20603;-76
2023/07/28 12:23:03;;;;;;;6.72;2.63;;;27.00;95.50;;;;;;4981661;28;20026;-74
2023/07/28 12:25:30;;;;;;;6.00;2.15;;;27.00;95.50;;;;;;4975669;28;20110;-73
2023/07/28 12:27:55;;;;;;;6.88;2.20;;;26.90;95.20;;;;;;4979340;28;20018;-73
2023/07/28 12:30:21;;;;;;;5.90;2.10;;;27.20;95.00;;;;;;4975448;28;20042;-73
2023/07/28 12:32:47;;;;;;;7.93;2.97;;;27.70;94.70;;;;;;4979992;28;20117;-74
2023/07/28 12:35:13;;;;;;;3.80;2.13;;;27.80;94.70;;;;;;4974017;28;20036;-74
2023/07/28 12:37:38;;;;;;;4.93;2.10;;;28.00;94.20;;;;;;4979830;28;20026;-71
2023/07/28 12:40:05;;;;;;;4.82;2.05;;;28.00;94.20;;;;;;4978899;28;20074;-74
2023/07/28 12:42:32;;;;;;;4.93;2.10;;;27.60;93.80;;;;;;4980621;28;20033;-73
2023/07/28 12:44:57;;;;;;;4.45;2.60;;;27.30;94.50;;;;;;4985444;28;20035;-72
2023/07/28 12:47:23;;;;;;;5.03;2.15;;;27.60;95.40;;;;;;4974690;28;20384;-73